createdAt,value
2022-10-05T00:00:32.327Z,100.00
2022-10-05T00:04:44.714Z,100.00
2022-10-05T00:08:57.388Z,100.00
2022-10-05T00:13:21.211Z,100.00
2022-10-05T00:17:33.508Z,100.00
2022-10-05T00:21:45.817Z,100.00
2022-10-05T00:26:15.076Z,100.00
2022-10-05T00:30:31.736Z,100.00
2022-10-05T00:34:48.855Z,100.00
2022-10-05T00:39:02.869Z,100.00
2022-10-05T00:43:42.927Z,100.00
2022-10-05T00:48:01.369Z,100.00
2022-10-05T00:52:20.995Z,100.00
2022-10-05T00:56:36.437Z,100.00
2022-10-05T01:01:04.074Z,100.00
2022-10-05T01:05:22.373Z,100.00
2022-10-05T01:09:53.119Z,100.00
2022-10-05T01:14:20.504Z,100.00
2022-10-05T01:18:42.841Z,100.00
2022-10-05T01:23:32.243Z,100.00
2022-10-05T01:28:04.865Z,100.00
2022-10-05T01:32:24.505Z,100.00
2022-10-05T01:36:45.906Z,100.00
2022-10-05T01:41:13.614Z,100.00
2022-10-05T01:46:02.042Z,100.00
2022-10-05T01:50:17.075Z,100.00
2022-10-05T01:54:47.549Z,100.00
2022-10-05T01:59:32.984Z,100.00
2022-10-05T02:03:50.912Z,100.00
2022-10-05T02:08:09.156Z,100.00
2022-10-05T02:12:24.449Z,100.00
2022-10-05T02:16:44.279Z,100.00
2022-10-05T02:20:59.851Z,100.00
2022-10-05T02:25:16.765Z,100.00
2022-10-05T02:29:34.034Z,100.00
2022-10-05T02:33:46.532Z,100.00
2022-10-05T02:38:34.488Z,100.00
2022-10-05T02:43:02.145Z,100.00
2022-10-05T02:47:29.081Z,100.00
2022-10-05T02:52:24.029Z,100.00
2022-10-05T02:56:49.133Z,100.00
2022-10-05T03:01:22.272Z,100.00
2022-10-05T03:05:42.661Z,100.00
2022-10-05T03:10:02.951Z,100.00
2022-10-05T03:14:23.848Z,100.00
2022-10-05T03:18:55.878Z,100.00
2022-10-05T03:23:18.528Z,100.00
2022-10-05T03:27:38.810Z,100.00
2022-10-05T03:32:11.797Z,100.00
2022-10-05T03:36:53.256Z,100.00
2022-10-05T03:41:28.741Z,100.00
2022-10-05T03:45:54.361Z,100.00
2022-10-05T03:50:12.850Z,100.00
2022-10-05T03:54:38.630Z,100.00
2022-10-05T03:59:00.163Z,100.00
2022-10-05T04:03:50.819Z,100.00
2022-10-05T04:08:10.979Z,100.00
2022-10-05T04:12:31.324Z,100.00
2022-10-05T04:16:48.897Z,100.00
2022-10-05T04:21:22.776Z,100.00
2022-10-05T04:25:43.423Z,100.00
2022-10-05T04:30:06.047Z,100.00
2022-10-05T04:34:52.241Z,100.00
2022-10-05T04:39:21.756Z,100.00
2022-10-05T04:43:46.665Z,100.00
2022-10-05T04:48:09.174Z,100.00
2022-10-05T04:52:35.467Z,100.00
2022-10-05T04:56:58.635Z,100.00
2022-10-05T05:01:35.644Z,100.00
2022-10-05T05:06:17.766Z,100.00
2022-10-05T05:10:54.732Z,100.00
2022-10-05T05:15:36.107Z,100.00
2022-10-05T05:19:48.495Z,100.00
2022-10-05T05:24:12.253Z,100.00
2022-10-05T05:28:47.593Z,100.00
2022-10-05T05:33:18.445Z,100.00
2022-10-05T05:37:39.914Z,100.00
2022-10-05T05:42:33.803Z,100.00
2022-10-05T05:47:04.130Z,100.00
2022-10-05T05:51:35.895Z,100.00
2022-10-05T05:56:00.024Z,100.00
2022-10-05T06:00:28.463Z,100.00
2022-10-05T06:05:16.390Z,100.00
2022-10-05T06:09:38.228Z,100.00
2022-10-05T06:13:51.884Z,100.00
2022-10-05T06:18:16.372Z,100.00
2022-10-05T06:22:38.024Z,100.00
2022-10-05T06:27:25.387Z,100.00
2022-10-05T06:32:00.578Z,100.00
2022-10-05T06:36:33.604Z,100.00
2022-10-05T06:41:01.138Z,100.00
2022-10-05T06:45:26.102Z,100.00
2022-10-05T06:49:59.049Z,100.00
2022-10-05T06:54:32.957Z,100.00
2022-10-05T06:59:15.593Z,100.00
2022-10-05T07:04:05.088Z,100.00
2022-10-05T07:08:47.935Z,100.00
2022-10-05T07:13:27.479Z,100.00
2022-10-05T07:17:57.923Z,100.00
2022-10-05T07:22:33.509Z,100.00
2022-10-05T07:26:56.618Z,100.00
2022-10-05T07:31:18.250Z,100.00
2022-10-05T07:36:01.471Z,100.00
2022-10-05T07:40:30.526Z,100.00
2022-10-05T07:44:58.169Z,100.00
2022-10-05T07:49:22.684Z,100.00
2022-10-05T07:53:41.868Z,100.00
2022-10-05T07:58:20.966Z,100.00
2022-10-05T08:02:41.051Z,100.00
2022-10-05T08:06:58.721Z,100.00
2022-10-05T08:11:23.938Z,100.00
2022-10-05T08:15:45.569Z,100.00
2022-10-05T08:20:37.536Z,100.00
2022-10-05T08:25:04.198Z,100.00
2022-10-05T08:29:43.548Z,100.00
2022-10-05T08:34:18.227Z,100.00
2022-10-05T08:38:34.178Z,100.00
2022-10-05T08:42:49.331Z,100.00
2022-10-05T08:47:40.748Z,100.00
2022-10-05T08:52:31.443Z,100.00
2022-10-05T08:56:51.654Z,100.00
2022-10-05T09:01:07.060Z,100.00
2022-10-05T09:05:38.148Z,100.00
2022-10-05T09:10:24.067Z,91.32
2022-10-05T09:15:13.604Z,100.00
2022-10-05T09:19:45.240Z,79.65
2022-10-05T09:24:48.595Z,74.24
2022-10-05T09:29:27.543Z,72.48
2022-10-05T09:33:58.182Z,69.96
2022-10-05T09:38:34.394Z,68.30
2022-10-05T09:43:06.605Z,72.25
2022-10-05T09:48:00.680Z,66.54
2022-10-05T09:52:34.748Z,65.77
2022-10-05T09:57:32.204Z,65.35
2022-10-05T10:02:20.602Z,65.07
2022-10-05T10:06:45.215Z,66.19
2022-10-05T10:11:36.641Z,69.37
2022-10-05T10:16:04.343Z,57.38
2022-10-05T10:20:29.031Z,57.44
2022-10-05T10:25:29.577Z,57.45
2022-10-05T10:30:12.776Z,58.87
2022-10-05T10:34:50.951Z,59.02
2022-10-05T10:39:32.428Z,59.01
2022-10-05T10:44:09.751Z,58.64
2022-10-05T10:48:21.984Z,55.64
2022-10-05T10:52:58.512Z,55.60
2022-10-05T10:57:15.952Z,53.94
2022-10-05T11:01:35.499Z,56.90
2022-10-05T11:06:03.137Z,56.49
2022-10-05T11:10:37.046Z,50.94
2022-10-05T11:15:06.779Z,53.12
2022-10-05T11:19:40.066Z,54.34
2022-10-05T11:24:44.640Z,53.87
2022-10-05T11:29:11.963Z,52.38
2022-10-05T11:33:48.987Z,55.13
2022-10-05T11:38:22.565Z,53.42
2022-10-05T11:43:02.680Z,51.12
2022-10-05T11:47:23.728Z,49.22
2022-10-05T11:51:41.859Z,49.98
2022-10-05T11:56:12.407Z,53.77
2022-10-05T12:00:37.046Z,55.37
2022-10-05T12:05:07.782Z,55.69
2022-10-05T12:09:38.925Z,57.67
2022-10-05T12:13:58.905Z,53.55
2022-10-05T12:18:33.473Z,52.92
2022-10-05T12:23:18.704Z,52.04
2022-10-05T12:27:41.788Z,55.27
2022-10-05T12:32:12.284Z,51.37
2022-10-05T12:36:59.316Z,57.70
2022-10-05T12:41:28.253Z,51.55
2022-10-05T12:45:40.539Z,49.90
2022-10-05T12:50:14.078Z,48.55
2022-10-05T12:54:47.340Z,47.75
2022-10-05T12:59:05.384Z,50.74
2022-10-05T13:03:35.140Z,47.52
2022-10-05T13:08:02.148Z,48.07
2022-10-05T13:12:36.967Z,47.07
2022-10-05T13:17:06.920Z,48.70
2022-10-05T13:21:48.064Z,45.72
2022-10-05T13:26:08.880Z,47.47
2022-10-05T13:30:22.541Z,45.38
2022-10-05T13:34:44.131Z,46.19
2022-10-05T13:39:08.764Z,47.38
2022-10-05T13:43:34.257Z,47.37
2022-10-05T13:48:08.148Z,48.26
2022-10-05T13:52:51.414Z,47.69
2022-10-05T13:57:30.810Z,47.74
2022-10-05T14:02:21.497Z,49.87
2022-10-05T14:06:37.467Z,50.02
2022-10-05T14:10:49.898Z,50.76
2022-10-05T14:15:20.260Z,50.93
2022-10-05T14:19:44.110Z,56.45
2022-10-05T14:23:59.692Z,51.78
2022-10-05T14:28:32.743Z,52.82
2022-10-05T14:33:03.939Z,54.29
2022-10-05T14:37:32.336Z,56.12
2022-10-05T14:41:51.293Z,58.79
2022-10-05T14:46:23.262Z,67.66
2022-10-05T14:50:53.011Z,63.20
2022-10-05T14:55:15.116Z,58.76
2022-10-05T14:59:44.248Z,63.51
2022-10-05T15:04:21.697Z,67.38
2022-10-05T15:08:55.573Z,64.47
2022-10-05T15:13:20.705Z,63.97
2022-10-05T15:18:06.562Z,59.91
2022-10-05T15:22:42.020Z,60.50
2022-10-05T15:26:57.223Z,63.28
2022-10-05T15:31:20.615Z,66.88
2022-10-05T15:35:49.179Z,69.93
2022-10-05T15:40:18.652Z,68.81
2022-10-05T15:44:41.987Z,78.95
2022-10-05T15:49:20.493Z,77.18
2022-10-05T15:53:37.898Z,69.63
2022-10-05T15:57:57.483Z,75.01
2022-10-05T16:02:23.647Z,81.74
2022-10-05T16:07:06.267Z,85.13
2022-10-05T16:11:23.667Z,95.17
2022-10-05T16:15:47.181Z,100.00
2022-10-05T16:20:19.587Z,100.00
2022-10-05T16:25:07.425Z,100.00
2022-10-05T16:29:29.624Z,100.00
2022-10-05T16:33:55.116Z,100.00
2022-10-05T16:38:25.459Z,100.00
2022-10-05T16:43:01.982Z,100.00
2022-10-05T16:47:36.678Z,100.00
2022-10-05T16:52:02.366Z,100.00
2022-10-05T16:56:22.789Z,100.00
2022-10-05T17:00:35.153Z,100.00
2022-10-05T17:04:59.708Z,100.00
2022-10-05T17:09:22.964Z,100.00
2022-10-05T17:13:41.840Z,100.00
2022-10-05T17:18:06.395Z,100.00
2022-10-05T17:22:24.368Z,100.00
2022-10-05T17:26:58.577Z,100.00
2022-10-05T17:31:22.649Z,100.00
2022-10-05T17:35:54.047Z,100.00
2022-10-05T17:40:38.623Z,100.00
2022-10-05T17:44:55.270Z,100.00
2022-10-05T17:49:26.164Z,100.00
2022-10-05T17:54:02.932Z,100.00
2022-10-05T17:58:24.472Z,100.00
2022-10-05T18:02:38.145Z,100.00
2022-10-05T18:06:53.534Z,100.00
2022-10-05T18:11:14.011Z,100.00
2022-10-05T18:15:26.289Z,100.00
2022-10-05T18:19:40.365Z,100.00
2022-10-05T18:23:52.604Z,100.00
2022-10-05T18:28:28.744Z,100.00
2022-10-05T18:33:19.529Z,100.00
2022-10-05T18:38:22.654Z,100.00
2022-10-05T18:42:45.346Z,100.00
2022-10-05T18:47:13.673Z,100.00
2022-10-05T18:51:39.064Z,100.00
2022-10-05T18:56:12.776Z,100.00
2022-10-05T19:00:32.495Z,100.00
2022-10-05T19:04:44.731Z,100.00
2022-10-05T19:09:09.209Z,100.00
2022-10-05T19:13:24.443Z,100.00
2022-10-05T19:18:05.345Z,100.00
2022-10-05T19:22:37.866Z,100.00
2022-10-05T19:27:02.292Z,100.00
2022-10-05T19:31:35.768Z,100.00
2022-10-05T19:36:08.112Z,100.00
2022-10-05T19:40:31.251Z,100.00
2022-10-05T19:45:16.794Z,100.00
2022-10-05T19:49:48.776Z,100.00
2022-10-05T19:54:07.316Z,100.00
2022-10-05T19:58:32.401Z,100.00
2022-10-05T20:02:45.356Z,100.00
2022-10-05T20:06:57.741Z,100.00
2022-10-05T20:11:11.750Z,100.00
2022-10-05T20:15:48.181Z,100.00
2022-10-05T20:20:26.344Z,100.00
2022-10-05T20:24:51.506Z,100.00
2022-10-05T20:29:03.768Z,100.00
2022-10-05T20:33:16.097Z,100.00
2022-10-05T20:37:28.382Z,100.00
2022-10-05T20:41:40.703Z,100.00
2022-10-05T20:45:56.685Z,100.00
2022-10-05T20:50:10.929Z,100.00
2022-10-05T20:54:26.840Z,100.00
2022-10-05T20:58:39.121Z,100.00
2022-10-05T21:02:51.425Z,100.00
2022-10-05T21:07:06.199Z,100.00
2022-10-05T21:11:18.848Z,100.00
2022-10-05T21:15:31.124Z,100.00
2022-10-05T21:19:43.381Z,100.00
2022-10-05T21:23:55.697Z,100.00
2022-10-05T21:28:08.911Z,100.00
2022-10-05T21:32:22.765Z,100.00
2022-10-05T21:36:35.707Z,100.00
2022-10-05T21:40:48.011Z,100.00
2022-10-05T21:45:00.287Z,100.00
2022-10-05T21:49:20.694Z,100.00
2022-10-05T21:53:35.863Z,100.00
2022-10-05T21:57:48.431Z,100.00
2022-10-05T22:02:00.719Z,100.00
2022-10-05T22:06:13.000Z,100.00
2022-10-05T22:10:25.823Z,100.00
2022-10-05T22:14:38.085Z,100.00
2022-10-05T22:18:51.024Z,100.00
2022-10-05T22:23:03.443Z,100.00
2022-10-05T22:27:17.598Z,100.00
2022-10-05T22:31:29.945Z,100.00
2022-10-05T22:35:42.309Z,100.00
2022-10-05T22:39:55.987Z,100.00
2022-10-05T22:44:08.344Z,100.00
2022-10-05T22:48:20.829Z,100.00
2022-10-05T22:52:33.185Z,100.00
2022-10-05T22:56:45.464Z,100.00
2022-10-05T23:01:01.979Z,100.00
2022-10-05T23:05:15.362Z,100.00
2022-10-05T23:09:27.694Z,100.00
2022-10-05T23:13:48.761Z,100.00
2022-10-05T23:18:01.573Z,100.00
2022-10-05T23:22:13.839Z,100.00
2022-10-05T23:26:26.927Z,100.00
2022-10-05T23:30:39.237Z,100.00
2022-10-05T23:34:51.573Z,100.00
2022-10-05T23:39:03.976Z,100.00
2022-10-05T23:43:16.343Z,100.00
2022-10-05T23:47:28.797Z,100.00
2022-10-05T23:51:45.952Z,100.00
2022-10-05T23:55:58.235Z,100.00
